Fairchild Air Force Base


Codes: KSKA/SKA
Name: Fairchild Air Force Base
City: Spokane
Country: United States
Elevation: 2461 ft.
Website:
Wikipedia:

Photos at Fairchild Air Force Base


   Photos courtesy of SpottingLog. You can add your own sightings and photos by signing up for a free trial today.



No photos found.

Weather at Fairchild Air Force Base


Time (UTC)DescriptionTempratureWindCloud coverageVisibilityPressureHumidity
17-Jun-2024 06:00Scattered Clouds9°C4 mph, N40%10000m1011hPa58%
17-Jun-2024 09:00Broken Clouds8°C4 mph, NW51%10000m1011hPa65%
17-Jun-2024 12:00Broken Clouds6°C7 mph, N66%10000m1011hPa75%
17-Jun-2024 15:00Broken Clouds9°C2 mph, SW68%10000m1011hPa63%
17-Jun-2024 18:00Light Rain14°C9 mph, W43%10000m1009hPa42%
17-Jun-2024 21:00Broken Clouds17°C9 mph, W68%10000m1009hPa34%
18-Jun-2024 00:00Broken Clouds16°C13 mph, SW83%10000m1008hPa44%
18-Jun-2024 03:00Overcast Clouds14°C9 mph, W91%10000m1008hPa48%
18-Jun-2024 06:00Light Rain9°C9 mph, SW91%10000m1012hPa75%
18-Jun-2024 09:00Light Rain7°C9 mph, SW100%10000m1013hPa90%
18-Jun-2024 12:00Light Rain6°C9 mph, S100%10000m1015hPa90%
18-Jun-2024 15:00Overcast Clouds8°C9 mph, SW99%10000m1016hPa74%
18-Jun-2024 18:00Overcast Clouds14°C9 mph, SW90%10000m1015hPa50%
18-Jun-2024 21:00Light Rain17°C7 mph, SW70%10000m1014hPa41%
19-Jun-2024 00:00Overcast Clouds14°C11 mph, N87%10000m1014hPa59%
19-Jun-2024 03:00Broken Clouds13°C9 mph, NE84%10000m1014hPa61%
19-Jun-2024 06:00Broken Clouds9°C7 mph, NE74%10000m1016hPa82%
19-Jun-2024 09:00Scattered Clouds7°C4 mph, NE49%10000m1017hPa87%
19-Jun-2024 12:00Scattered Clouds6°C7 mph, NE42%10000m1018hPa91%
19-Jun-2024 15:00Few Clouds12°C9 mph, NE12%10000m1017hPa64%
19-Jun-2024 18:00Clear Sky19°C7 mph, NE9%10000m1016hPa41%
19-Jun-2024 21:00Clear Sky22°C4 mph, NE1%10000m1015hPa28%
20-Jun-2024 00:00Clear Sky23°C4 mph, NE2%10000m1013hPa25%
20-Jun-2024 03:00Clear Sky18°C2 mph, NE1%10000m1013hPa41%
20-Jun-2024 06:00Clear Sky14°C4 mph, NE0%10000m1014hPa48%
20-Jun-2024 09:00Clear Sky11°C4 mph, NE10%10000m1014hPa59%
20-Jun-2024 12:00Scattered Clouds9°C7 mph, NE30%10000m1015hPa65%
20-Jun-2024 15:00Clear Sky15°C9 mph, NE6%10000m1015hPa53%
20-Jun-2024 18:00Clear Sky22°C7 mph, NE4%10000m1013hPa34%
20-Jun-2024 21:00Broken Clouds26°C4 mph, NE54%10000m1011hPa20%
21-Jun-2024 00:00Broken Clouds27°C7 mph, NE75%10000m1009hPa20%
21-Jun-2024 03:00Overcast Clouds21°C7 mph, N100%10000m1009hPa37%
21-Jun-2024 06:00Overcast Clouds19°C7 mph, N100%10000m1009hPa35%
21-Jun-2024 09:00Overcast Clouds16°C7 mph, N100%10000m1009hPa42%
21-Jun-2024 12:00Broken Clouds13°C4 mph, NE60%10000m1010hPa51%
21-Jun-2024 15:00Clear Sky18°C7 mph, NE0%10000m1010hPa42%
21-Jun-2024 18:00Clear Sky24°C0 mph, N4%10000m1009hPa29%
21-Jun-2024 21:00Broken Clouds28°C7 mph, W84%10000m1008hPa23%
22-Jun-2024 00:00Broken Clouds28°C9 mph, W84%10000m1007hPa21%
22-Jun-2024 03:00Scattered Clouds23°C4 mph, W33%10000m1007hPa36%